Time;durP1;ratioP1;P1;durP2;ratioP2;P2;SDS_P1;SDS_P2;PMS_P1;PMS_P2;Temp;Humidity;BMP_temperature;BMP_pressure;BME280_temperature;BME280_humidity;BME280_pressure;Samples;Min_cycle;Max_cycle;Signal;HPM_P1;HPM_P2
2021/01/16 00:00:50;;;;;;;33.10;17.38;;;-1.40;99.90;;;;;;6219752;23;20004;-82
2021/01/16 00:03:16;;;;;;;35.60;18.80;;;-1.40;99.90;;;;;;6219498;23;20005;-82
2021/01/16 00:05:43;;;;;;;36.45;17.75;;;-1.40;99.90;;;;;;6220234;23;20012;-82
2021/01/16 00:08:17;;;;;;;32.60;17.10;;;-1.40;99.90;;;;;;6220069;23;20032;-82
2021/01/16 00:10:49;;;;;;;36.40;17.65;;;-1.30;99.90;;;;;;6194794;23;20282;-83
2021/01/16 00:13:17;;;;;;;29.50;16.10;;;-1.30;99.90;;;;;;6195711;23;20050;-84
2021/01/16 00:15:43;;;;;;;32.85;17.98;;;-1.20;99.90;;;;;;6193809;23;20255;-82
2021/01/16 00:18:11;;;;;;;32.10;16.67;;;-1.30;99.90;;;;;;6193944;23;20004;-82
2021/01/16 00:20:40;;;;;;;31.23;17.02;;;-1.30;99.90;;;;;;6219540;23;20005;-83
2021/01/16 00:23:07;;;;;;;29.42;17.20;;;-1.20;99.90;;;;;;6192852;23;20001;-84
2021/01/16 00:25:34;;;;;;;31.27;17.45;;;-1.20;99.90;;;;;;6193701;23;20088;-81
2021/01/16 00:28:00;;;;;;;31.42;17.48;;;-1.30;99.90;;;;;;6193238;23;20001;-82
2021/01/16 00:30:28;;;;;;;32.80;16.95;;;-1.30;99.90;;;;;;6220512;23;20001;-82
2021/01/16 00:32:54;;;;;;;30.08;16.92;;;-1.20;99.90;;;;;;6193331;23;20023;-82
2021/01/16 00:35:21;;;;;;;32.88;17.50;;;-1.30;99.90;;;;;;6193912;23;20001;-83
2021/01/16 00:37:49;;;;;;;31.75;17.50;;;-1.30;99.90;;;;;;6220890;23;20005;-82
2021/01/16 00:40:19;;;;;;;36.13;18.33;;;-1.30;99.90;;;;;;6221290;23;20004;-83
2021/01/16 00:42:48;;;;;;;32.97;15.90;;;-1.30;99.90;;;;;;6219365;23;20108;-82
2021/01/16 00:45:15;;;;;;;31.90;17.15;;;-1.30;99.90;;;;;;6194455;23;20008;-82
2021/01/16 00:47:45;;;;;;;28.98;16.65;;;-1.30;99.90;;;;;;6222791;23;20083;-83
2021/01/16 00:50:16;;;;;;;35.05;17.13;;;-1.30;99.90;;;;;;6221061;23;20076;-83
2021/01/16 00:52:53;;;;;;;31.60;16.85;;;-1.30;99.90;;;;;;6219861;23;20016;-82
2021/01/16 00:55:19;;;;;;;32.10;17.10;;;-1.30;99.90;;;;;;6221569;23;20005;-84
2021/01/16 00:57:45;;;;;;;34.80;18.10;;;-1.30;99.90;;;;;;6193066;23;20000;-82
2021/01/16 01:00:11;;;;;;;36.63;18.17;;;-1.40;99.90;;;;;;6194493;23;20005;-82
2021/01/16 01:02:41;;;;;;;36.05;17.83;;;-1.40;99.90;;;;;;6196742;23;20005;-85
2021/01/16 01:05:09;;;;;;;35.80;18.10;;;-1.40;99.90;;;;;;6221222;23;20498;-83
2021/01/16 01:07:34;;;;;;;34.63;18.40;;;-1.40;99.90;;;;;;6217879;23;20079;-83
2021/01/16 01:10:00;;;;;;;35.35;18.10;;;-1.40;99.90;;;;;;6191515;23;20008;-83
2021/01/16 01:12:25;;;;;;;38.17;18.13;;;-1.30;99.90;;;;;;6195330;23;20031;-82
2021/01/16 01:14:51;;;;;;;32.80;17.17;;;-1.40;99.90;;;;;;6219050;23;20031;-82
2021/01/16 01:17:20;;;;;;;30.38;16.55;;;-1.40;99.90;;;;;;6218616;23;20004;-79
2021/01/16 01:19:45;;;;;;;34.97;17.45;;;-1.40;99.90;;;;;;6191173;23;20503;-82
2021/01/16 01:22:11;;;;;;;34.05;17.58;;;-1.40;99.90;;;;;;6220399;23;20008;-81
2021/01/16 01:24:38;;;;;;;32.60;17.08;;;-1.50;99.90;;;;;;6193058;23;20112;-82
2021/01/16 01:27:05;;;;;;;32.40;16.83;;;-1.40;99.90;;;;;;6195958;23;20012;-81
2021/01/16 01:29:31;;;;;;;29.35;16.58;;;-1.40;99.90;;;;;;6197246;23;20004;-82
2021/01/16 01:31:56;;;;;;;31.95;16.80;;;-1.50;99.90;;;;;;6217561;23;20008;-82
2021/01/16 01:34:22;;;;;;;34.47;17.77;;;-1.50;99.90;;;;;;6192000;23;19997;-83
2021/01/16 01:36:48;;;;;;;29.60;16.77;;;-1.50;99.90;;;;;;6192650;23;20004;-82
2021/01/16 01:39:14;;;;;;;31.90;16.77;;;-1.50;99.90;;;;;;6192182;23;20064;-82
2021/01/16 01:41:40;;;;;;;33.95;16.52;;;-1.50;99.90;;;;;;6191801;23;20005;-82
2021/01/16 01:44:06;;;;;;;38.95;18.38;;;-1.50;99.90;;;;;;6219159;23;20001;-82
2021/01/16 01:46:34;;;;;;;32.47;18.17;;;-1.40;99.90;;;;;;6218914;23;20007;-82
2021/01/16 01:49:00;;;;;;;30.23;17.05;;;-1.40;99.90;;;;;;6191613;23;20000;-81
2021/01/16 01:51:29;;;;;;;37.42;18.85;;;-1.40;99.90;;;;;;6219156;23;20008;-81
2021/01/16 01:53:56;;;;;;;30.75;17.35;;;-1.30;99.90;;;;;;6218445;23;20028;-81
2021/01/16 01:56:25;;;;;;;31.63;17.30;;;-1.40;99.90;;;;;;6191511;23;20007;-82
2021/01/16 01:58:52;;;;;;;33.85;18.35;;;-1.50;99.90;;;;;;6192777;23;20064;-81
2021/01/16 02:01:21;;;;;;;32.60;18.20;;;-1.50;99.90;;;;;;6194051;23;20015;-83
2021/01/16 02:03:50;;;;;;;31.08;17.83;;;-1.50;99.90;;;;;;6223342;23;20096;-81
2021/01/16 02:06:16;;;;;;;29.70;16.52;;;-1.50;99.90;;;;;;6221083;23;20073;-81
2021/01/16 02:08:42;;;;;;;37.88;18.75;;;-1.50;99.90;;;;;;6219570;23;20110;-83
2021/01/16 02:11:10;;;;;;;38.72;19.83;;;-1.50;99.90;;;;;;6192820;23;20424;-82
2021/01/16 02:13:35;;;;;;;30.67;17.50;;;-1.60;99.90;;;;;;6193881;23;20000;-82
2021/01/16 02:16:24;;;;;;;32.63;17.40;;;-1.60;99.90;;;;;;6197515;23;20001;-81
2021/01/16 02:18:54;;;;;;;30.13;16.88;;;-1.60;99.90;;;;;;6207776;23;20099;-82
2021/01/16 02:21:21;;;;;;;32.13;17.88;;;-1.50;99.90;;;;;;6226640;23;20075;-82
2021/01/16 02:23:55;;;;;;;29.77;16.77;;;-1.50;99.90;;;;;;6193855;23;20008;-82
2021/01/16 02:26:50;;;;;;;32.58;16.65;;;-1.60;99.90;;;;;;6193741;23;20024;-82
2021/01/16 02:29:17;;;;;;;26.67;15.52;;;-1.50;99.90;;;;;;6193165;23;20004;-82
2021/01/16 02:31:47;;;;;;;30.10;16.58;;;-1.50;99.90;;;;;;6219376;23;20007;-82
2021/01/16 02:34:17;;;;;;;29.90;16.58;;;-1.50;99.90;;;;;;6193541;23;20060;-82
2021/01/16 02:37:12;;;;;;;31.88;17.33;;;-1.50;99.90;;;;;;6192549;23;20024;-81
2021/01/16 02:39:47;;;;;;;28.55;15.48;;;-1.50;99.90;;;;;;6192867;23;20016;-82
2021/01/16 02:42:35;;;;;;;29.15;15.65;;;-1.50;99.90;;;;;;6219935;23;20008;-82
2021/01/16 02:45:14;;;;;;;28.38;16.30;;;-1.50;99.90;;;;;;6192013;23;20016;-82
2021/01/16 02:47:54;;;;;;;31.15;15.18;;;-1.50;99.90;;;;;;6220099;23;20004;-81
2021/01/16 02:50:22;;;;;;;35.47;18.33;;;-1.50;99.90;;;;;;6196795;23;20004;-81
2021/01/16 02:52:49;;;;;;;27.75;16.05;;;-1.50;99.90;;;;;;6227510;23;20011;-81
2021/01/16 02:55:16;;;;;;;30.23;15.77;;;-1.60;99.90;;;;;;6223947;23;20054;-81
2021/01/16 02:57:42;;;;;;;31.67;16.27;;;-1.50;99.90;;;;;;6220208;23;20004;-81
2021/01/16 03:00:11;;;;;;;28.63;15.52;;;-1.50;99.90;;;;;;6220335;23;20095;-83
2021/01/16 03:02:37;;;;;;;29.60;15.77;;;-1.50;99.90;;;;;;6219992;23;20386;-83
2021/01/16 03:05:04;;;;;;;28.25;15.65;;;-1.50;99.90;;;;;;6193738;23;20343;-84
2021/01/16 03:07:32;;;;;;;28.75;15.50;;;-1.50;99.90;;;;;;6220064;23;20035;-84
2021/01/16 03:10:01;;;;;;;28.48;16.55;;;-1.50;99.90;;;;;;6220455;23;20012;-83
2021/01/16 03:12:27;;;;;;;29.67;15.07;;;-1.40;99.90;;;;;;6220310;23;20095;-81
2021/01/16 03:15:07;;;;;;;25.13;14.35;;;-1.50;99.90;;;;;;6217727;23;20087;-83
2021/01/16 03:17:49;;;;;;;30.85;15.45;;;-1.50;99.90;;;;;;6196241;23;20051;-82
2021/01/16 03:20:22;;;;;;;28.60;15.77;;;-1.50;99.90;;;;;;6194604;23;20421;-83
2021/01/16 03:22:59;;;;;;;32.92;17.20;;;-1.50;99.90;;;;;;6194737;23;20049;-83
2021/01/16 03:25:27;;;;;;;29.77;16.75;;;-1.50;99.90;;;;;;6193723;23;20008;-83
2021/01/16 03:27:54;;;;;;;30.42;15.45;;;-1.50;99.90;;;;;;6193348;23;20104;-83
2021/01/16 03:30:21;;;;;;;32.03;16.98;;;-1.60;99.90;;;;;;6220934;23;20088;-84
2021/01/16 03:32:49;;;;;;;32.08;16.52;;;-1.60;99.90;;;;;;6192379;23;20032;-83
2021/01/16 03:35:16;;;;;;;31.08;16.38;;;-1.60;99.90;;;;;;6220175;23;20004;-82
2021/01/16 03:37:44;;;;;;;28.75;16.10;;;-1.60;99.90;;;;;;6192606;23;20016;-84
2021/01/16 03:40:10;;;;;;;28.23;15.65;;;-1.50;99.90;;;;;;6192472;23;20008;-83
2021/01/16 03:42:37;;;;;;;32.95;16.83;;;-1.60;99.90;;;;;;6193568;23;20039;-83
2021/01/16 03:45:09;;;;;;;30.60;17.25;;;-1.60;99.90;;;;;;6194854;23;20031;-83
2021/01/16 03:47:35;;;;;;;34.42;17.92;;;-1.60;99.90;;;;;;6193502;23;20067;-83
2021/01/16 03:50:02;;;;;;;32.08;16.95;;;-1.60;99.90;;;;;;6218985;23;20486;-83
2021/01/16 03:52:31;;;;;;;29.80;17.45;;;-1.60;99.90;;;;;;6193267;23;20011;-85
2021/01/16 03:54:57;;;;;;;31.02;17.00;;;-1.60;99.90;;;;;;6193324;23;20008;-85
2021/01/16 03:57:23;;;;;;;30.75;17.23;;;-1.60;99.90;;;;;;6221072;23;19997;-85
2021/01/16 03:59:49;;;;;;;34.53;19.23;;;-1.60;99.90;;;;;;6221902;23;20001;-84
2021/01/16 04:02:16;;;;;;;30.08;16.23;;;-1.70;99.90;;;;;;6221496;23;20000;-83
2021/01/16 04:04:41;;;;;;;35.08;20.23;;;-1.70;99.90;;;;;;6197039;23;20029;-81
2021/01/16 04:07:08;;;;;;;32.88;17.55;;;-1.60;99.90;;;;;;6203179;23;20928;-85
2021/01/16 04:09:33;;;;;;;30.20;16.33;;;-1.70;99.90;;;;;;6220048;23;20012;-84
2021/01/16 04:11:59;;;;;;;37.17;18.15;;;-1.60;99.90;;;;;;6205910;23;20001;-80
2021/01/16 04:14:24;;;;;;;34.33;17.17;;;-1.60;99.90;;;;;;6237235;23;20004;-84
2021/01/16 04:16:50;;;;;;;29.75;16.73;;;-1.60;99.90;;;;;;6236215;23;19985;-83
2021/01/16 04:19:16;;;;;;;33.03;17.00;;;-1.60;99.90;;;;;;6194696;23;20005;-85
2021/01/16 04:21:41;;;;;;;31.00;17.05;;;-1.60;99.90;;;;;;6219906;23;20000;-83
2021/01/16 04:24:07;;;;;;;32.28;17.95;;;-1.50;99.90;;;;;;6193176;23;20013;-82
2021/01/16 04:26:33;;;;;;;34.17;17.23;;;-1.60;99.90;;;;;;6193907;23;20004;-84
2021/01/16 04:28:58;;;;;;;34.67;19.00;;;-1.50;99.90;;;;;;6220002;23;20398;-84
2021/01/16 04:31:24;;;;;;;31.60;16.17;;;-1.60;99.90;;;;;;6193006;23;20009;-84
2021/01/16 04:33:51;;;;;;;32.20;17.50;;;-1.60;99.90;;;;;;6195560;23;20027;-79
2021/01/16 04:36:17;;;;;;;29.85;16.08;;;-1.50;99.90;;;;;;6198731;23;20061;-84
2021/01/16 04:38:42;;;;;;;32.42;16.25;;;-1.60;99.90;;;;;;6196203;23;20009;-85
2021/01/16 04:41:09;;;;;;;34.65;18.38;;;-1.60;99.90;;;;;;6193506;23;20009;-84
2021/01/16 04:43:35;;;;;;;36.10;16.98;;;-1.60;99.90;;;;;;6218485;23;20008;-85
2021/01/16 04:46:07;;;;;;;34.67;18.23;;;-1.70;99.90;;;;;;6192108;23;20023;-85
2021/01/16 04:48:34;;;;;;;32.75;18.02;;;-1.70;99.90;;;;;;6219753;23;20000;-84
2021/01/16 04:51:00;;;;;;;36.78;17.90;;;-1.70;99.90;;;;;;6218880;23;20050;-84
2021/01/16 04:53:36;;;;;;;32.38;17.30;;;-1.70;99.90;;;;;;6218587;23;20092;-83
2021/01/16 04:56:04;;;;;;;32.15;17.33;;;-1.70;99.90;;;;;;6219099;23;20578;-84
2021/01/16 04:58:32;;;;;;;32.72;17.90;;;-1.70;99.90;;;;;;6191658;23;20004;-84
2021/01/16 05:00:59;;;;;;;32.85;18.05;;;-1.70;99.90;;;;;;6191420;23;20103;-84
2021/01/16 05:03:27;;;;;;;34.45;17.58;;;-1.70;99.90;;;;;;6218350;23;20004;-84
2021/01/16 05:05:55;;;;;;;32.25;17.95;;;-1.70;99.90;;;;;;6191404;23;20009;-83
2021/01/16 05:08:23;;;;;;;29.88;16.45;;;-1.70;99.90;;;;;;6218197;23;20019;-84
2021/01/16 05:10:53;;;;;;;32.05;18.05;;;-1.80;99.90;;;;;;6221215;23;20085;-83
2021/01/16 05:13:24;;;;;;;34.70;18.20;;;-1.70;99.90;;;;;;6189601;23;20083;-83
2021/01/16 05:15:57;;;;;;;36.67;18.75;;;-1.70;99.90;;;;;;6191797;23;20005;-84
2021/01/16 05:18:25;;;;;;;34.85;18.33;;;-1.70;99.90;;;;;;6191829;23;20087;-83
2021/01/16 05:20:51;;;;;;;31.40;17.27;;;-1.70;99.90;;;;;;6191167;23;20086;-82
2021/01/16 05:23:17;;;;;;;37.22;19.17;;;-1.70;99.90;;;;;;6191471;23;20004;-80
2021/01/16 05:25:45;;;;;;;38.03;18.63;;;-1.70;99.90;;;;;;6191869;23;20009;-83
2021/01/16 05:28:19;;;;;;;37.30;19.67;;;-1.80;99.90;;;;;;6191481;23;20009;-83
2021/01/16 05:30:58;;;;;;;35.58;18.70;;;-1.80;99.90;;;;;;6191673;23;20429;-84
2021/01/16 05:33:28;;;;;;;33.30;17.25;;;-1.80;99.90;;;;;;6218507;23;19996;-80
2021/01/16 05:35:56;;;;;;;32.10;16.77;;;-1.70;99.90;;;;;;6195009;23;20027;-82
2021/01/16 05:38:24;;;;;;;36.33;17.85;;;-1.70;99.90;;;;;;6191157;23;20059;-81
2021/01/16 05:40:53;;;;;;;29.17;16.45;;;-1.70;99.90;;;;;;6217256;23;20420;-83
2021/01/16 05:43:19;;;;;;;30.30;16.20;;;-1.60;99.90;;;;;;6217836;23;20282;-84
2021/01/16 05:45:47;;;;;;;34.25;17.10;;;-1.60;99.90;;;;;;6192524;23;20103;-82
2021/01/16 05:48:14;;;;;;;30.52;17.13;;;-1.60;99.90;;;;;;6192920;23;20049;-82
2021/01/16 05:50:40;;;;;;;31.95;16.40;;;-1.70;99.90;;;;;;6220636;23;20005;-81
2021/01/16 05:53:07;;;;;;;29.20;16.40;;;-1.70;99.90;;;;;;6192708;23;20000;-82
2021/01/16 05:55:33;;;;;;;30.27;16.15;;;-1.70;99.90;;;;;;6193412;23;20060;-84
2021/01/16 05:58:19;;;;;;;28.35;15.02;;;-1.70;99.90;;;;;;6194637;23;20001;-83
2021/01/16 06:00:49;;;;;;;28.23;14.40;;;-1.70;99.90;;;;;;6193546;23;20007;-83
2021/01/16 06:03:17;;;;;;;27.20;15.43;;;-1.70;99.90;;;;;;6219583;23;19996;-84
2021/01/16 06:05:51;;;;;;;29.83;15.05;;;-1.80;99.90;;;;;;6193756;23;20004;-82
2021/01/16 06:08:18;;;;;;;30.35;15.85;;;-1.80;99.90;;;;;;6199117;23;20001;-80
2021/01/16 06:10:50;;;;;;;34.83;17.13;;;-1.70;99.90;;;;;;6237305;23;20290;-82
2021/01/16 06:13:18;;;;;;;29.25;15.30;;;-1.80;99.90;;;;;;6230155;23;20008;-83
2021/01/16 06:15:52;;;;;;;28.70;15.40;;;-1.80;99.80;;;;;;6193690;23;20031;-82
2021/01/16 06:18:21;;;;;;;27.67;14.93;;;-1.90;99.90;;;;;;6197102;23;20287;-83
2021/01/16 06:20:52;;;;;;;27.20;14.82;;;-1.80;99.90;;;;;;6193759;23;20026;-84
2021/01/16 06:23:21;;;;;;;27.10;14.15;;;-1.80;99.90;;;;;;6220085;23;20011;-84
2021/01/16 06:25:52;;;;;;;25.58;13.38;;;-1.90;99.90;;;;;;6220590;23;20060;-83
2021/01/16 06:28:19;;;;;;;27.60;14.38;;;-1.90;99.70;;;;;;6194117;23;20448;-84
2021/01/16 06:30:47;;;;;;;24.83;13.38;;;-1.90;99.50;;;;;;6217960;23;20007;-84
2021/01/16 06:33:30;;;;;;;28.73;14.63;;;-1.90;99.00;;;;;;6193627;23;20004;-82
2021/01/16 06:36:02;;;;;;;26.95;14.18;;;-1.90;99.20;;;;;;6193632;23;20000;-84
2021/01/16 06:38:33;;;;;;;27.73;15.35;;;-1.90;99.00;;;;;;6224712;23;20015;-85
2021/01/16 06:41:16;;;;;;;29.27;13.68;;;-1.90;99.20;;;;;;6198476;23;20007;-84
2021/01/16 06:43:45;;;;;;;;;;;-1.90;99.50;;;;;;6224863;23;20015;-84
2021/01/16 06:46:14;;;;;;;29.38;14.52;;;-1.80;99.30;;;;;;6196276;23;19978;-84
2021/01/16 06:48:43;;;;;;;29.88;15.52;;;-1.80;99.30;;;;;;6220911;23;20091;-84
2021/01/16 06:51:12;;;;;;;33.30;15.77;;;-1.80;99.40;;;;;;6193955;23;20005;-80
2021/01/16 06:53:38;;;;;;;31.42;16.02;;;-1.80;99.60;;;;;;6219714;23;20014;-79
2021/01/16 06:56:10;;;;;;;31.52;15.30;;;-1.80;99.60;;;;;;6219861;23;20000;-81
2021/01/16 06:58:41;;;;;;;27.53;14.87;;;-1.90;99.70;;;;;;6219459;23;20000;-82
2021/01/16 07:01:08;;;;;;;30.80;15.90;;;-1.90;99.70;;;;;;6194358;23;20015;-83
2021/01/16 07:03:39;;;;;;;27.00;15.35;;;-1.90;99.70;;;;;;6195601;23;20032;-83
2021/01/16 07:06:07;;;;;;;29.25;16.10;;;-1.90;99.60;;;;;;6194737;23;20012;-81
2021/01/16 07:08:33;;;;;;;33.25;15.38;;;-1.90;99.60;;;;;;6195224;23;20005;-80
2021/01/16 07:11:00;;;;;;;31.15;14.98;;;-1.90;99.70;;;;;;6223230;23;20016;-82
2021/01/16 07:13:26;;;;;;;27.40;14.82;;;-1.90;99.40;;;;;;6221296;23;20013;-82
2021/01/16 07:15:53;;;;;;;29.38;15.45;;;-1.90;99.50;;;;;;6195003;23;20024;-79
2021/01/16 07:18:20;;;;;;;28.33;14.60;;;-1.80;99.20;;;;;;6196048;23;20448;-79
2021/01/16 07:20:48;;;;;;;31.30;16.92;;;-1.90;99.30;;;;;;6222356;23;20000;-81
2021/01/16 07:23:17;;;;;;;32.45;16.73;;;-1.90;99.60;;;;;;6196462;23;20087;-80
2021/01/16 07:25:43;;;;;;;30.05;15.50;;;-1.80;99.60;;;;;;6225089;23;19992;-84
2021/01/16 07:28:10;;;;;;;28.55;15.65;;;-1.80;99.30;;;;;;6196538;23;20004;-83
2021/01/16 07:30:36;;;;;;;32.50;17.02;;;-1.90;99.20;;;;;;6197685;23;20007;-83
2021/01/16 07:33:04;;;;;;;36.15;18.90;;;-1.80;99.10;;;;;;6222903;23;20015;-83
2021/01/16 07:35:31;;;;;;;31.52;16.23;;;-1.80;99.20;;;;;;6195815;23;20007;-83
2021/01/16 07:37:58;;;;;;;33.08;17.50;;;-1.80;99.60;;;;;;6196329;23;20325;-83
2021/01/16 07:40:28;;;;;;;30.70;16.90;;;-1.80;99.00;;;;;;6196143;23;20015;-84
2021/01/16 07:43:01;;;;;;;32.88;17.92;;;-1.80;98.90;;;;;;6221532;23;20035;-83
2021/01/16 07:45:33;;;;;;;34.67;17.73;;;-1.80;99.10;;;;;;6195872;23;20103;-83
2021/01/16 07:48:04;;;;;;;31.67;17.63;;;-1.80;99.20;;;;;;6191706;23;20075;-83
2021/01/16 07:50:35;;;;;;;32.63;16.48;;;-1.90;99.40;;;;;;6195528;23;20012;-82
2021/01/16 07:53:02;;;;;;;34.55;18.42;;;-1.80;99.50;;;;;;6223365;23;20005;-83
2021/01/16 07:55:36;;;;;;;29.27;16.73;;;-1.80;99.40;;;;;;6220652;23;20001;-83
2021/01/16 07:58:15;;;;;;;31.20;17.33;;;-1.80;99.50;;;;;;6196893;23;20039;-84
2021/01/16 08:00:52;;;;;;;34.85;17.38;;;-1.70;99.10;;;;;;6223654;23;20336;-87
2021/01/16 08:03:36;;;;;;;36.22;16.50;;;-1.80;98.40;;;;;;6196229;23;20004;-84
2021/01/16 08:06:23;;;;;;;34.92;15.88;;;-1.70;98.40;;;;;;6196340;23;20004;-83
2021/01/16 08:08:49;;;;;;;30.38;15.60;;;-1.70;98.00;;;;;;6221635;23;20001;-81
2021/01/16 08:11:19;;;;;;;26.13;15.15;;;-1.60;97.50;;;;;;6195650;23;20086;-83
2021/01/16 08:13:47;;;;;;;30.60;16.45;;;-1.60;97.40;;;;;;6222420;23;19996;-82
2021/01/16 08:16:13;;;;;;;28.42;15.20;;;-1.50;96.70;;;;;;6222800;23;19997;-85
2021/01/16 08:18:47;;;;;;;28.40;16.05;;;-1.40;96.60;;;;;;6198569;23;20008;-83
2021/01/16 08:21:14;;;;;;;25.40;13.57;;;-1.40;96.70;;;;;;6197736;23;20039;-84
2021/01/16 08:23:48;;;;;;;26.58;14.25;;;-1.40;96.00;;;;;;6197021;23;20269;-87
2021/01/16 08:26:18;;;;;;;22.15;12.43;;;-1.30;95.30;;;;;;6225005;23;20016;-85
2021/01/16 08:28:44;;;;;;;27.45;13.98;;;-1.30;94.70;;;;;;6223182;23;20008;-84
2021/01/16 08:31:30;;;;;;;26.88;13.88;;;-1.30;94.30;;;;;;6196975;23;20076;-83
2021/01/16 08:33:56;;;;;;;25.27;13.50;;;-1.40;94.60;;;;;;6198670;23;20024;-82
2021/01/16 08:36:22;;;;;;;27.80;14.45;;;-1.30;94.40;;;;;;6224344;23;20004;-83
2021/01/16 08:38:50;;;;;;;22.85;13.18;;;-1.30;94.10;;;;;;6199186;23;20008;-82
2021/01/16 08:41:26;;;;;;;26.95;14.93;;;-1.30;94.80;;;;;;6228779;23;20340;-84
2021/01/16 08:43:57;;;;;;;24.70;14.02;;;-1.20;94.30;;;;;;6202883;23;20087;-83
2021/01/16 08:46:35;;;;;;;28.17;14.80;;;-1.20;94.20;;;;;;6196864;23;20068;-83
2021/01/16 08:49:07;;;;;;;25.92;14.05;;;-1.20;94.10;;;;;;6198370;23;20022;-83
2021/01/16 08:51:35;;;;;;;27.35;14.60;;;-1.20;93.70;;;;;;6205436;23;19988;-82
2021/01/16 08:54:19;;;;;;;29.23;15.35;;;-1.10;93.30;;;;;;6236591;23;20008;-84
2021/01/16 08:56:49;;;;;;;25.90;13.35;;;-1.00;93.50;;;;;;6220292;23;20011;-82
2021/01/16 08:59:27;;;;;;;27.48;14.43;;;-1.20;93.10;;;;;;6195281;23;20024;-82
2021/01/16 09:02:03;;;;;;;26.45;14.13;;;-1.30;93.50;;;;;;6193966;23;20004;-82
2021/01/16 09:04:33;;;;;;;27.00;14.05;;;-1.20;93.50;;;;;;6193525;23;20095;-84
2021/01/16 09:07:22;;;;;;;30.63;15.07;;;-1.10;93.80;;;;;;6219842;23;19996;-82
2021/01/16 09:09:59;;;;;;;22.85;12.40;;;-1.10;93.40;;;;;;6193628;23;20088;-82
2021/01/16 09:12:30;;;;;;;25.20;13.50;;;-1.00;92.90;;;;;;6192382;23;20019;-83
2021/01/16 09:15:19;;;;;;;28.35;14.57;;;-0.90;92.60;;;;;;6193624;23;20463;-84
2021/01/16 09:18:17;;;;;;;28.55;14.63;;;-0.80;92.20;;;;;;6191993;23;20055;-83
2021/01/16 09:20:45;;;;;;;28.20;14.00;;;-0.70;92.60;;;;;;6161393;23;20103;-84
2021/01/16 09:23:28;;;;;;;25.27;13.77;;;-0.80;91.40;;;;;;6195176;23;20012;-84
2021/01/16 09:26:16;;;;;;;25.02;13.52;;;-0.90;91.70;;;;;;6194874;23;20005;-84
2021/01/16 09:28:53;;;;;;;25.42;13.60;;;-0.90;92.10;;;;;;6194274;23;20020;-82
2021/01/16 09:31:29;;;;;;;22.67;12.38;;;-0.80;91.80;;;;;;6199964;23;20072;-82
2021/01/16 09:34:06;;;;;;;25.23;13.65;;;-0.80;91.30;;;;;;6201096;23;20001;-82
2021/01/16 09:36:39;;;;;;;24.27;11.93;;;-0.80;90.90;;;;;;6204545;23;20008;-82
2021/01/16 09:39:25;;;;;;;28.45;13.73;;;-0.80;90.90;;;;;;6206262;23;20019;-82
2021/01/16 09:41:56;;;;;;;25.83;14.13;;;-0.90;91.20;;;;;;6202545;23;20013;-84
2021/01/16 09:44:44;;;;;;;23.05;12.38;;;-0.80;91.10;;;;;;6195774;23;20005;-84
2021/01/16 09:47:25;;;;;;;25.42;13.60;;;-0.80;91.20;;;;;;6195304;23;20068;-83
2021/01/16 09:49:53;;;;;;;22.38;12.75;;;-0.70;91.00;;;;;;6227429;23;20009;-82
2021/01/16 09:52:20;;;;;;;24.65;12.73;;;-0.70;91.00;;;;;;6206001;23;20000;-82
2021/01/16 09:54:50;;;;;;;22.83;12.40;;;-0.70;91.00;;;;;;6209937;23;20000;-82
2021/01/16 09:57:40;;;;;;;26.98;13.15;;;-0.70;90.70;;;;;;6210178;23;20017;-82
2021/01/16 10:00:13;;;;;;;22.02;11.23;;;-0.80;91.10;;;;;;6235098;23;20052;-82
2021/01/16 10:02:41;;;;;;;23.42;11.85;;;-0.80;91.20;;;;;;6206306;23;20001;-82
2021/01/16 10:05:12;;;;;;;22.10;12.25;;;-0.80;91.10;;;;;;6230572;23;20001;-82
2021/01/16 10:07:39;;;;;;;23.13;12.23;;;-0.90;90.80;;;;;;6204508;23;20012;-82
2021/01/16 10:10:19;;;;;;;19.10;10.55;;;-0.80;90.90;;;;;;6231108;23;20001;-82
2021/01/16 10:12:48;;;;;;;25.20;11.93;;;-0.70;90.80;;;;;;6233272;23;20001;-81
2021/01/16 10:15:16;;;;;;;18.65;10.27;;;-0.70;90.50;;;;;;6206870;23;20017;-81
2021/01/16 10:17:53;;;;;;;19.65;11.57;;;-0.60;90.40;;;;;;6205659;23;20001;-81
2021/01/16 10:20:19;;;;;;;21.35;11.75;;;-0.50;90.00;;;;;;6206221;23;20051;-81
2021/01/16 10:22:53;;;;;;;20.02;11.10;;;-0.50;89.30;;;;;;6205229;23;19992;-81
2021/01/16 10:25:36;;;;;;;19.85;10.88;;;-0.60;89.40;;;;;;6231651;23;20095;-82
2021/01/16 10:28:02;;;;;;;21.98;12.77;;;-0.60;90.60;;;;;;6229856;23;20262;-81
2021/01/16 10:30:33;;;;;;;21.73;11.57;;;-0.50;90.90;;;;;;6230977;23;20015;-83
2021/01/16 10:32:59;;;;;;;24.35;11.60;;;-0.40;90.20;;;;;;6233069;23;20124;-82
2021/01/16 10:35:30;;;;;;;18.30;10.35;;;-0.30;88.20;;;;;;6206890;23;20020;-82
2021/01/16 10:37:59;;;;;;;21.27;10.55;;;-0.20;87.60;;;;;;6205911;23;20005;-82
2021/01/16 10:40:25;;;;;;;19.00;10.13;;;-0.20;86.90;;;;;;6206452;23;20009;-83
2021/01/16 10:42:59;;;;;;;16.48;9.43;;;-0.20;86.40;;;;;;6204426;23;20013;-83
2021/01/16 10:45:32;;;;;;;18.48;10.27;;;-0.30;86.90;;;;;;6206353;23;20012;-81
2021/01/16 10:48:17;;;;;;;18.05;10.27;;;-0.10;86.90;;;;;;6206704;23;20008;-81
2021/01/16 10:50:45;;;;;;;19.48;10.65;;;-0.10;85.80;;;;;;6233162;23;20004;-81
2021/01/16 10:53:11;;;;;;;17.67;9.93;;;-0.20;85.10;;;;;;6205742;23;20435;-82
2021/01/16 10:55:56;;;;;;;17.50;9.85;;;;;;;;;;6232911;23;19997;-83
2021/01/16 10:58:21;;;;;;;20.63;10.85;;;0.00;95.80;;;;;;6230349;23;20004;-79
2021/01/16 11:01:01;;;;;;;19.42;10.13;;;0.10;96.10;;;;;;6205424;23;19997;-81
2021/01/16 11:03:31;;;;;;;20.17;10.25;;;0.10;86.50;;;;;;6205337;23;20019;-81
2021/01/16 11:06:07;;;;;;;17.73;10.43;;;;;;;;;;6232903;23;19996;-80
2021/01/16 11:08:35;;;;;;;19.40;11.13;;;-0.20;85.20;;;;;;6233186;23;20290;-81
2021/01/16 11:11:22;;;;;;;20.40;11.35;;;-0.40;86.80;;;;;;6235806;23;20061;-81
2021/01/16 11:13:48;;;;;;;21.15;10.77;;;-0.30;87.10;;;;;;6212691;23;20016;-80
2021/01/16 11:16:25;;;;;;;18.85;10.50;;;-0.20;86.70;;;;;;6213408;23;20035;-80
2021/01/16 11:18:52;;;;;;;20.05;11.40;;;-0.30;87.40;;;;;;6213405;23;20016;-79
2021/01/16 11:21:47;;;;;;;21.55;11.63;;;-0.20;86.50;;;;;;6240009;23;20008;-80
2021/01/16 11:24:31;;;;;;;21.25;12.55;;;-0.30;87.20;;;;;;6213593;23;20060;-82
2021/01/16 11:27:00;;;;;;;26.00;13.82;;;-0.50;88.50;;;;;;6239750;23;19993;-80
2021/01/16 11:29:39;;;;;;;25.05;12.82;;;-0.40;88.50;;;;;;6213806;23;20008;-81
2021/01/16 11:32:14;;;;;;;28.23;14.52;;;-0.40;90.00;;;;;;6213007;23;20004;-81
2021/01/16 11:35:16;;;;;;;21.83;11.75;;;-0.30;90.10;;;;;;6215321;23;20023;-82
2021/01/16 11:37:56;;;;;;;21.48;11.93;;;-0.20;90.10;;;;;;6217459;23;19993;-82
2021/01/16 11:40:33;;;;;;;15.07;8.40;;;0.00;88.50;;;;;;6242163;23;19997;-83
2021/01/16 11:43:01;;;;;;;13.98;7.88;;;0.00;85.80;;;;;;6242399;23;19999;-83
2021/01/16 11:45:27;;;;;;;16.73;8.82;;;0.00;84.50;;;;;;6242652;23;19988;-83
2021/01/16 11:47:58;;;;;;;17.92;9.55;;;0.00;84.90;;;;;;6243062;23;20024;-83
2021/01/16 11:50:30;;;;;;;15.35;9.07;;;0.10;84.60;;;;;;6242763;23;20000;-83
2021/01/16 11:52:56;;;;;;;15.73;10.00;;;0.20;84.50;;;;;;6242814;23;19989;-83
2021/01/16 11:55:21;;;;;;;18.73;10.32;;;0.30;84.30;;;;;;6242867;23;20000;-83
2021/01/16 11:57:51;;;;;;;16.95;11.00;;;0.40;85.30;;;;;;6215809;23;20004;-82
2021/01/16 12:00:18;;;;;;;22.95;11.48;;;0.40;84.80;;;;;;6242075;22;19997;-83
2021/01/16 12:02:49;;;;;;;20.58;12.25;;;0.30;84.10;;;;;;6241421;23;20004;-81
2021/01/16 12:05:19;;;;;;;22.42;13.18;;;;;;;;;;6242057;23;20000;-82
2021/01/16 12:07:52;;;;;;;18.80;11.52;;;;;;;;;;6215720;23;19997;-82
2021/01/16 12:10:19;;;;;;;23.75;12.23;;;0.40;99.90;;;;;;6239763;23;20064;-81
2021/01/16 12:12:45;;;;;;;28.65;14.45;;;0.10;84.20;;;;;;6214686;23;20072;-80
2021/01/16 12:15:22;;;;;;;23.30;11.88;;;-0.10;85.70;;;;;;6241788;23;19989;-81
2021/01/16 12:17:50;;;;;;;20.10;12.23;;;-0.10;85.60;;;;;;6242181;23;20020;-83
2021/01/16 12:20:17;;;;;;;23.63;11.63;;;-0.10;86.00;;;;;;6216344;23;20043;-83
2021/01/16 12:22:58;;;;;;;21.30;11.20;;;-0.10;84.70;;;;;;6241782;23;19997;-84
2021/01/16 12:25:36;;;;;;;20.88;11.60;;;0.00;85.00;;;;;;6242019;23;19988;-82
2021/01/16 12:28:12;;;;;;;19.27;9.68;;;0.00;83.60;;;;;;6241736;23;20004;-81
2021/01/16 12:30:42;;;;;;;19.38;9.98;;;-0.10;83.10;;;;;;6241725;23;20008;-82
2021/01/16 12:33:19;;;;;;;14.55;8.30;;;0.00;82.40;;;;;;6215360;23;20000;-82
2021/01/16 12:35:45;;;;;;;13.30;7.47;;;0.10;82.00;;;;;;6241904;23;20024;-82
2021/01/16 12:38:11;;;;;;;13.32;7.13;;;0.10;80.60;;;;;;6241849;23;19988;-81
2021/01/16 12:40:37;;;;;;;12.45;7.45;;;0.10;78.60;;;;;;6241971;23;20026;-82
2021/01/16 12:43:11;;;;;;;16.10;7.75;;;0.00;78.50;;;;;;6214898;23;20001;-81
2021/01/16 12:45:39;;;;;;;14.27;7.57;;;-0.20;85.80;;;;;;6214212;23;19988;-82
2021/01/16 12:48:11;;;;;;;30.75;12.95;;;-0.40;79.90;;;;;;6241572;23;20028;-82